createdAt,value
2023-01-19T00:02:27.256Z,54.40
2023-01-19T00:04:59.887Z,55.20
2023-01-19T00:07:32.987Z,57.08
2023-01-19T00:10:06.628Z,55.88
2023-01-19T00:12:39.151Z,55.08
2023-01-19T00:15:12.426Z,52.42
2023-01-19T00:17:45.191Z,52.90
2023-01-19T00:20:17.937Z,53.97
2023-01-19T00:22:51.135Z,55.00
2023-01-19T00:25:23.838Z,56.47
2023-01-19T00:27:57.138Z,55.10
2023-01-19T00:30:30.317Z,53.83
2023-01-19T00:33:03.301Z,55.45
2023-01-19T00:35:36.641Z,55.92
2023-01-19T00:38:10.595Z,57.65
2023-01-19T00:40:43.205Z,57.25
2023-01-19T00:43:15.839Z,58.60
2023-01-19T00:45:48.452Z,59.50
2023-01-19T00:48:20.850Z,56.90
2023-01-19T00:50:53.357Z,58.75
2023-01-19T00:53:26.037Z,57.45
2023-01-19T00:55:58.834Z,57.20
2023-01-19T00:58:31.255Z,59.53
2023-01-19T01:01:05.026Z,57.80
2023-01-19T01:03:37.659Z,57.33
2023-01-19T01:06:10.198Z,63.42
2023-01-19T01:08:42.658Z,58.45
2023-01-19T01:11:15.400Z,59.42
2023-01-19T01:13:48.157Z,64.65
2023-01-19T01:16:21.261Z,60.95
2023-01-19T01:18:53.764Z,63.75
2023-01-19T01:21:26.382Z,64.20
2023-01-19T01:23:58.875Z,58.13
2023-01-19T01:26:31.972Z,60.65
2023-01-19T01:29:06.540Z,62.65
2023-01-19T01:31:39.227Z,59.45
2023-01-19T01:34:11.732Z,63.80
2023-01-19T01:36:44.439Z,60.65
2023-01-19T01:39:16.816Z,59.05
2023-01-19T01:41:49.683Z,55.33
2023-01-19T01:44:52.889Z,58.70
2023-01-19T01:47:44.641Z,58.60
2023-01-19T01:50:20.877Z,56.30
2023-01-19T01:53:06.846Z,57.90
2023-01-19T01:55:46.687Z,58.03
2023-01-19T01:58:19.216Z,58.65
2023-01-19T02:01:07.909Z,58.35
2023-01-19T02:03:40.477Z,55.13
2023-01-19T02:06:14.995Z,55.45
2023-01-19T02:09:09.841Z,54.22
2023-01-19T02:11:58.735Z,47.42
2023-01-19T02:14:31.270Z,46.60
2023-01-19T02:17:04.245Z,47.00
2023-01-19T02:19:45.064Z,43.08
2023-01-19T02:22:40.750Z,40.30
2023-01-19T02:25:13.766Z,39.72
2023-01-19T02:27:47.124Z,40.08
2023-01-19T02:30:19.998Z,39.08
2023-01-19T02:32:52.567Z,37.60
2023-01-19T02:35:25.535Z,34.40
2023-01-19T02:37:58.949Z,34.90
2023-01-19T02:40:31.807Z,32.80
2023-01-19T02:43:06.851Z,34.25
2023-01-19T02:48:12.720Z,31.15
2023-01-19T02:50:49.636Z,33.78
2023-01-19T02:53:49.876Z,32.38
2023-01-19T02:56:25.998Z,33.10
2023-01-19T02:59:08.734Z,31.58
2023-01-19T03:01:54.530Z,31.90
2023-01-19T03:04:37.949Z,30.50
2023-01-19T03:07:14.895Z,29.85
2023-01-19T03:09:59.554Z,29.05
2023-01-19T03:12:45.909Z,20.45
2023-01-19T03:15:22.439Z,25.38
2023-01-19T03:17:58.554Z,26.10
2023-01-19T03:20:31.676Z,24.25
2023-01-19T03:23:08.906Z,24.88
2023-01-19T03:25:44.646Z,24.05
2023-01-19T03:28:20.324Z,23.65
2023-01-19T03:30:59.044Z,22.27
2023-01-19T03:33:35.951Z,23.17
2023-01-19T03:36:15.123Z,23.20
2023-01-19T03:38:50.600Z,22.17
2023-01-19T03:41:25.192Z,22.88
2023-01-19T03:43:59.071Z,23.73
2023-01-19T03:46:33.006Z,22.33
2023-01-19T03:49:05.959Z,23.40
2023-01-19T03:51:40.017Z,23.50
2023-01-19T03:54:12.764Z,23.70
2023-01-19T03:56:45.139Z,23.45
2023-01-19T03:59:17.789Z,22.42
2023-01-19T04:01:50.378Z,22.38
2023-01-19T04:04:23.008Z,22.40
2023-01-19T04:06:55.635Z,22.60
2023-01-19T04:09:28.924Z,21.98
2023-01-19T04:12:02.118Z,21.92
2023-01-19T04:14:34.723Z,21.42
2023-01-19T04:17:08.305Z,20.80
2023-01-19T04:19:40.880Z,21.15
2023-01-19T04:22:13.363Z,20.27
2023-01-19T04:24:45.907Z,19.80
2023-01-19T04:27:19.086Z,20.73
2023-01-19T04:29:52.242Z,19.17
2023-01-19T04:32:24.838Z,18.58
2023-01-19T04:34:57.548Z,17.80
2023-01-19T04:37:30.001Z,17.60
2023-01-19T04:40:02.588Z,17.42
2023-01-19T04:42:35.086Z,17.05
2023-01-19T04:45:08.716Z,17.83
2023-01-19T04:47:42.859Z,16.65
2023-01-19T04:50:15.480Z,17.40
2023-01-19T04:52:49.082Z,17.60
2023-01-19T04:55:21.620Z,17.00
2023-01-19T04:57:54.459Z,15.93
2023-01-19T05:00:27.339Z,16.83
2023-01-19T05:03:00.247Z,16.30
2023-01-19T05:05:33.458Z,15.15
2023-01-19T05:08:06.322Z,16.15
2023-01-19T05:10:39.094Z,16.13
2023-01-19T05:13:11.594Z,15.55
2023-01-19T05:15:44.067Z,16.77
2023-01-19T05:18:16.436Z,15.52
2023-01-19T05:20:48.976Z,15.43
2023-01-19T05:23:21.469Z,15.05
2023-01-19T05:25:56.516Z,15.43
2023-01-19T05:31:02.128Z,15.15
2023-01-19T05:33:34.971Z,14.60
2023-01-19T05:36:07.752Z,13.75
2023-01-19T05:38:40.241Z,13.70
2023-01-19T05:41:12.850Z,14.48
2023-01-19T05:43:45.441Z,12.23
2023-01-19T05:46:18.049Z,13.52
2023-01-19T05:48:51.068Z,13.27
2023-01-19T05:51:23.765Z,10.68
2023-01-19T05:53:56.064Z,11.25
2023-01-19T05:56:28.659Z,11.60
2023-01-19T05:59:01.791Z,9.82
2023-01-19T06:01:37.434Z,9.70
2023-01-19T06:04:11.166Z,10.65
2023-01-19T06:06:43.622Z,9.52
2023-01-19T06:09:17.477Z,9.93
2023-01-19T06:11:50.182Z,10.57
2023-01-19T06:14:22.747Z,8.20
2023-01-19T06:16:55.602Z,7.93
2023-01-19T06:19:28.412Z,7.82
2023-01-19T06:22:01.167Z,8.93
2023-01-19T06:24:33.848Z,8.93
2023-01-19T06:27:06.878Z,10.00
2023-01-19T06:29:41.201Z,8.35
2023-01-19T06:32:13.761Z,7.60
2023-01-19T06:34:46.996Z,7.53
2023-01-19T06:37:19.636Z,8.32
2023-01-19T06:39:52.206Z,8.18
2023-01-19T06:42:24.741Z,8.25
2023-01-19T06:44:57.173Z,7.55
2023-01-19T06:47:30.688Z,7.18
2023-01-19T06:50:03.634Z,7.45
2023-01-19T06:52:42.836Z,7.68
2023-01-19T06:55:16.385Z,7.85
2023-01-19T06:57:48.967Z,7.57
2023-01-19T07:00:22.189Z,8.23
2023-01-19T07:02:54.843Z,8.57
2023-01-19T07:05:27.415Z,8.40
2023-01-19T07:08:00.046Z,9.40
2023-01-19T07:11:22.337Z,9.55
2023-01-19T07:13:25.045Z,8.38
2023-01-19T07:15:57.521Z,9.50
2023-01-19T07:18:29.990Z,9.35
2023-01-19T07:21:02.699Z,9.35
2023-01-19T07:23:35.288Z,10.05
2023-01-19T07:26:07.842Z,10.00
2023-01-19T07:28:40.483Z,9.50
2023-01-19T07:31:13.105Z,10.35
2023-01-19T07:33:46.128Z,10.38
2023-01-19T07:36:18.616Z,11.05
2023-01-19T07:38:51.238Z,10.50
2023-01-19T07:41:23.748Z,11.50
2023-01-19T07:43:56.320Z,11.32
2023-01-19T07:46:28.908Z,16.00
2023-01-19T07:49:01.461Z,12.90
2023-01-19T07:51:33.993Z,11.13
2023-01-19T07:54:08.688Z,12.02
2023-01-19T07:56:41.153Z,12.52
2023-01-19T07:59:13.786Z,12.70
2023-01-19T08:01:46.310Z,11.25
2023-01-19T08:04:19.300Z,12.98
2023-01-19T08:06:52.894Z,14.35
2023-01-19T08:09:25.695Z,12.93
2023-01-19T08:11:58.281Z,14.68
2023-01-19T08:14:31.260Z,14.43
2023-01-19T08:17:04.192Z,13.40
2023-01-19T08:19:37.269Z,12.57
2023-01-19T08:22:09.738Z,12.55
2023-01-19T08:24:42.266Z,12.45
2023-01-19T08:28:17.709Z,12.05
2023-01-19T08:30:55.316Z,11.60
2023-01-19T08:33:27.961Z,11.63
2023-01-19T08:36:00.687Z,12.38
2023-01-19T08:38:34.971Z,11.93
2023-01-19T08:41:07.856Z,11.38
2023-01-19T08:43:40.558Z,10.10
2023-01-19T08:46:17.180Z,12.15
2023-01-19T08:48:50.615Z,10.50
2023-01-19T08:51:23.387Z,10.32
2023-01-19T08:53:56.486Z,10.20
2023-01-19T08:56:29.119Z,10.70
2023-01-19T08:59:09.492Z,10.77
2023-01-19T09:01:42.734Z,11.30
2023-01-19T09:04:15.390Z,10.75
2023-01-19T09:06:47.832Z,10.50
2023-01-19T09:09:20.550Z,11.45
2023-01-19T09:11:55.877Z,12.07
2023-01-19T09:14:28.788Z,13.25
2023-01-19T09:17:01.482Z,13.23
2023-01-19T09:19:35.191Z,12.93
2023-01-19T09:22:07.859Z,12.50
2023-01-19T09:24:40.552Z,12.60
2023-01-19T09:27:13.617Z,12.80
2023-01-19T09:29:53.098Z,12.98
2023-01-19T09:32:25.732Z,12.75
2023-01-19T09:34:58.448Z,12.55
2023-01-19T09:37:31.101Z,11.02
2023-01-19T09:40:05.766Z,12.00
2023-01-19T09:42:44.838Z,12.10
2023-01-19T09:45:38.969Z,12.93
2023-01-19T09:48:31.618Z,12.02
2023-01-19T09:51:08.695Z,12.13
2023-01-19T09:54:05.179Z,11.30
2023-01-19T09:56:38.063Z,12.27
2023-01-19T09:59:15.445Z,12.02
2023-01-19T10:02:06.075Z,10.98
2023-01-19T10:04:41.635Z,12.15
2023-01-19T10:07:33.444Z,12.15
2023-01-19T10:10:24.905Z,11.98
2023-01-19T10:13:14.468Z,10.48
2023-01-19T10:16:01.273Z,10.82
2023-01-19T10:18:47.731Z,10.20
2023-01-19T10:21:34.930Z,10.43
2023-01-19T10:24:16.254Z,10.35
2023-01-19T10:26:53.001Z,9.60
2023-01-19T10:29:36.584Z,9.35
2023-01-19T10:32:13.669Z,9.30
2023-01-19T10:34:47.960Z,9.35
2023-01-19T10:37:30.662Z,8.77
2023-01-19T10:40:22.601Z,9.43
2023-01-19T10:42:57.584Z,9.75
2023-01-19T10:45:31.911Z,10.38
2023-01-19T10:48:07.861Z,11.77
2023-01-19T10:50:41.548Z,10.40
2023-01-19T10:53:25.941Z,10.30
2023-01-19T10:56:22.009Z,10.05
2023-01-19T10:58:54.872Z,10.38
2023-01-19T11:01:31.236Z,10.82
2023-01-19T11:04:22.693Z,9.80
2023-01-19T11:07:15.666Z,10.68
2023-01-19T11:09:48.944Z,11.15
2023-01-19T11:12:23.698Z,8.63
2023-01-19T11:14:58.240Z,11.55
2023-01-19T11:17:30.804Z,7.07
2023-01-19T11:20:04.034Z,14.65
2023-01-19T11:22:36.889Z,10.05
2023-01-19T11:25:30.241Z,8.15
2023-01-19T11:28:08.003Z,6.75
2023-01-19T11:30:56.041Z,8.27
2023-01-19T11:33:42.157Z,10.27
2023-01-19T11:36:21.644Z,8.48
2023-01-19T11:38:57.169Z,8.63
2023-01-19T11:41:37.405Z,10.65
2023-01-19T11:44:23.057Z,9.68
2023-01-19T11:47:03.936Z,9.20
2023-01-19T11:49:53.792Z,9.60
2023-01-19T11:52:45.583Z,9.93
2023-01-19T11:55:37.192Z,8.70
2023-01-19T11:58:18.164Z,9.63
2023-01-19T12:00:57.636Z,8.18
2023-01-19T12:03:49.524Z,7.10
2023-01-19T12:06:31.010Z,7.53
2023-01-19T12:09:11.282Z,7.00
2023-01-19T12:11:49.580Z,7.70
2023-01-19T12:14:29.198Z,7.18
2023-01-19T12:17:05.873Z,6.75
2023-01-19T12:20:05.081Z,6.60
2023-01-19T12:22:49.561Z,6.50
2023-01-19T12:25:27.321Z,6.43
2023-01-19T12:28:00.504Z,6.18
2023-01-19T12:30:33.595Z,6.00
2023-01-19T12:33:36.058Z,6.80
2023-01-19T12:36:24.172Z,8.35
2023-01-19T12:39:17.263Z,13.13
2023-01-19T12:42:04.365Z,9.00
2023-01-19T12:44:37.220Z,7.38
2023-01-19T12:47:13.227Z,6.50
2023-01-19T12:49:51.440Z,14.32
2023-01-19T12:52:24.996Z,8.90
2023-01-19T12:55:04.206Z,7.03
2023-01-19T12:57:47.575Z,9.10
2023-01-19T13:00:24.093Z,8.00
2023-01-19T13:02:58.950Z,10.68
2023-01-19T13:05:33.184Z,5.93
2023-01-19T13:08:07.444Z,6.22
2023-01-19T13:11:13.982Z,8.20
2023-01-19T13:14:06.989Z,12.80
2023-01-19T13:16:40.425Z,7.55
2023-01-19T13:19:18.794Z,8.63
2023-01-19T13:21:51.799Z,6.43
2023-01-19T13:24:25.011Z,6.10
2023-01-19T13:27:04.224Z,7.57
2023-01-19T13:29:43.076Z,6.40
2023-01-19T13:32:19.541Z,6.47
2023-01-19T13:34:58.816Z,6.07
2023-01-19T13:37:39.097Z,8.27
2023-01-19T13:40:23.801Z,7.20
2023-01-19T13:42:57.282Z,4.35
2023-01-19T13:45:38.752Z,6.65
2023-01-19T13:48:17.821Z,5.88
2023-01-19T13:51:07.812Z,6.22
2023-01-19T13:53:40.560Z,5.93
2023-01-19T13:56:21.938Z,5.88
2023-01-19T13:59:12.790Z,6.50
2023-01-19T14:01:47.104Z,6.45
2023-01-19T14:04:31.522Z,6.15
2023-01-19T14:07:14.047Z,5.47
2023-01-19T14:09:48.108Z,7.43
2023-01-19T14:12:21.029Z,6.32
2023-01-19T14:14:53.563Z,6.50
2023-01-19T14:17:28.890Z,9.90
2023-01-19T14:20:01.404Z,6.18
2023-01-19T14:22:44.142Z,6.63
2023-01-19T14:25:33.835Z,5.50
2023-01-19T14:28:39.759Z,5.68
2023-01-19T14:31:25.172Z,5.63
2023-01-19T14:33:58.759Z,4.85
2023-01-19T14:36:39.288Z,5.00
2023-01-19T14:39:23.814Z,7.00
2023-01-19T14:41:59.920Z,14.03
2023-01-19T14:44:37.390Z,7.45
2023-01-19T14:47:28.390Z,10.00
2023-01-19T14:50:07.707Z,8.73
2023-01-19T14:52:44.350Z,7.20
2023-01-19T14:55:21.448Z,10.35
2023-01-19T14:57:55.459Z,10.90
2023-01-19T15:00:28.478Z,8.50
2023-01-19T15:03:01.241Z,7.85
2023-01-19T15:05:34.425Z,5.65
2023-01-19T15:08:08.725Z,8.60
2023-01-19T15:10:42.500Z,5.05
2023-01-19T15:13:19.539Z,6.40
2023-01-19T15:15:52.909Z,5.78
2023-01-19T15:18:27.596Z,5.95
2023-01-19T15:21:03.622Z,8.00
2023-01-19T15:23:36.241Z,7.60
2023-01-19T15:26:16.561Z,6.95
2023-01-19T15:28:49.805Z,6.75
2023-01-19T15:31:26.193Z,7.95
2023-01-19T15:33:58.830Z,5.35
2023-01-19T15:36:31.361Z,6.82
2023-01-19T15:39:04.203Z,6.68
2023-01-19T15:41:39.703Z,6.72
2023-01-19T15:44:13.380Z,7.35
2023-01-19T15:46:46.490Z,7.70
2023-01-19T15:49:19.416Z,7.32
2023-01-19T15:51:52.154Z,8.30
2023-01-19T15:54:25.875Z,8.38
2023-01-19T15:56:58.500Z,7.03
2023-01-19T15:59:31.228Z,8.77
2023-01-19T16:02:06.103Z,8.70
2023-01-19T16:04:38.755Z,10.30
2023-01-19T16:07:12.745Z,8.50
2023-01-19T16:09:45.786Z,9.60
2023-01-19T16:12:19.133Z,8.60
2023-01-19T16:14:51.938Z,7.60
2023-01-19T16:17:24.759Z,8.55
2023-01-19T16:19:57.577Z,7.00
2023-01-19T16:22:30.298Z,8.75
2023-01-19T16:25:03.263Z,7.60
2023-01-19T16:27:35.963Z,7.82
2023-01-19T16:30:12.045Z,7.25
2023-01-19T16:32:45.402Z,8.02
2023-01-19T16:35:19.204Z,10.55
2023-01-19T16:37:52.183Z,13.48
2023-01-19T16:40:26.156Z,14.10
2023-01-19T16:42:58.873Z,14.50
2023-01-19T16:45:31.740Z,9.13
2023-01-19T16:48:04.545Z,8.15
2023-01-19T16:50:37.059Z,8.70
2023-01-19T16:53:09.770Z,8.60
2023-01-19T16:55:42.590Z,8.98
2023-01-19T16:58:15.303Z,9.30
2023-01-19T17:00:48.100Z,8.55
2023-01-19T17:03:20.939Z,9.63
2023-01-19T17:05:53.572Z,11.32
2023-01-19T17:08:26.266Z,8.98
2023-01-19T17:11:01.459Z,8.77
2023-01-19T17:13:34.437Z,9.55
2023-01-19T17:16:08.026Z,15.43
2023-01-19T17:18:41.281Z,9.98
2023-01-19T17:21:18.133Z,18.50
2023-01-19T17:23:53.763Z,28.45
2023-01-19T17:26:31.145Z,9.27
2023-01-19T17:29:07.605Z,10.07
2023-01-19T17:31:40.612Z,10.07
2023-01-19T17:34:13.331Z,8.90
2023-01-19T17:36:45.955Z,10.30
2023-01-19T17:39:18.871Z,9.82
2023-01-19T17:41:52.068Z,10.93
2023-01-19T17:44:25.087Z,11.13
2023-01-19T17:46:59.828Z,10.90
2023-01-19T17:49:32.812Z,13.02
2023-01-19T17:52:05.723Z,16.13
2023-01-19T17:54:38.317Z,20.58
2023-01-19T17:57:10.871Z,16.23
2023-01-19T17:59:44.220Z,14.75
2023-01-19T18:02:16.949Z,13.57
2023-01-19T18:04:52.717Z,13.82
2023-01-19T18:07:25.548Z,13.48
2023-01-19T18:10:00.891Z,13.77
2023-01-19T18:12:34.068Z,27.70
2023-01-19T18:15:07.962Z,18.20
2023-01-19T18:17:40.425Z,12.85
2023-01-19T18:20:13.404Z,12.43
2023-01-19T18:22:46.151Z,12.93
2023-01-19T18:25:18.691Z,16.60
2023-01-19T18:27:51.316Z,13.80
2023-01-19T18:30:24.231Z,16.15
2023-01-19T18:32:56.706Z,19.13
2023-01-19T18:35:55.470Z,21.73
2023-01-19T18:38:28.073Z,28.63
2023-01-19T18:41:02.879Z,17.65
2023-01-19T18:43:35.514Z,19.10
2023-01-19T18:46:08.392Z,24.45
2023-01-19T18:48:41.028Z,16.92
2023-01-19T18:51:15.250Z,21.85
2023-01-19T18:53:47.807Z,18.08
2023-01-19T18:56:20.629Z,19.40
2023-01-19T18:58:53.583Z,26.00
2023-01-19T19:01:32.515Z,19.73
2023-01-19T19:04:05.931Z,16.13
2023-01-19T19:06:38.584Z,17.58
2023-01-19T19:09:11.314Z,16.73
2023-01-19T19:11:43.889Z,15.95
2023-01-19T19:14:16.981Z,17.10
2023-01-19T19:16:49.620Z,18.25
2023-01-19T19:19:22.300Z,17.75
2023-01-19T19:21:55.028Z,17.13
2023-01-19T19:24:27.860Z,18.42
2023-01-19T19:27:00.737Z,18.35
2023-01-19T19:29:33.884Z,19.35
2023-01-19T19:32:07.039Z,20.88
2023-01-19T19:34:39.949Z,29.17
2023-01-19T19:37:13.097Z,26.92
2023-01-19T19:39:45.914Z,26.63
2023-01-19T19:42:18.559Z,24.52
2023-01-19T19:44:53.081Z,19.63
2023-01-19T19:47:25.795Z,22.48
2023-01-19T19:49:59.391Z,21.25
2023-01-19T19:52:44.420Z,22.23
2023-01-19T19:55:17.187Z,22.33
2023-01-19T19:57:50.039Z,26.30
2023-01-19T20:00:24.024Z,22.00
2023-01-19T20:02:57.139Z,22.43
2023-01-19T20:05:29.646Z,23.15
2023-01-19T20:08:02.417Z,22.92
2023-01-19T20:10:35.089Z,18.27
2023-01-19T20:13:09.339Z,19.35
2023-01-19T20:15:42.099Z,25.60
2023-01-19T20:18:16.031Z,23.85
2023-01-19T20:20:48.780Z,22.02
2023-01-19T20:23:21.574Z,21.92
2023-01-19T20:25:54.677Z,38.65
2023-01-19T20:28:27.406Z,22.23
2023-01-19T20:31:17.635Z,25.25
2023-01-19T20:33:52.641Z,26.52
2023-01-19T20:38:58.768Z,22.42
2023-01-19T20:41:31.264Z,36.60
2023-01-19T20:44:04.119Z,28.75
2023-01-19T20:46:36.796Z,25.40
2023-01-19T20:49:10.115Z,22.60
2023-01-19T20:51:45.328Z,27.88
2023-01-19T20:54:21.444Z,26.15
2023-01-19T20:56:54.537Z,27.25
2023-01-19T20:59:27.234Z,35.88
2023-01-19T21:02:00.277Z,34.67
2023-01-19T21:04:32.975Z,29.83
2023-01-19T21:07:05.803Z,27.23
2023-01-19T21:09:39.258Z,24.50
2023-01-19T21:12:12.034Z,25.05
2023-01-19T21:14:46.118Z,25.67
2023-01-19T21:17:20.100Z,18.13
2023-01-19T21:19:56.906Z,27.37
2023-01-19T21:22:32.691Z,28.75
2023-01-19T21:25:05.967Z,26.17
2023-01-19T21:27:38.396Z,24.65
2023-01-19T21:30:11.814Z,24.45
2023-01-19T21:32:44.397Z,28.90
2023-01-19T21:35:17.030Z,28.27
2023-01-19T21:37:49.579Z,26.83
2023-01-19T21:40:23.291Z,26.10
2023-01-19T21:42:55.901Z,26.80
2023-01-19T21:45:29.012Z,28.80
2023-01-19T21:48:01.593Z,30.15
2023-01-19T21:50:34.848Z,28.25
2023-01-19T21:53:09.824Z,27.40
2023-01-19T21:55:45.792Z,21.13
2023-01-19T21:58:18.302Z,26.30
2023-01-19T22:00:51.419Z,27.27
2023-01-19T22:03:25.702Z,26.92
2023-01-19T22:06:04.316Z,25.85
2023-01-19T22:08:37.171Z,24.48
2023-01-19T22:11:12.122Z,29.90
2023-01-19T22:16:20.184Z,25.65
2023-01-19T22:18:56.599Z,39.17
2023-01-19T22:21:33.502Z,31.42
2023-01-19T22:24:07.108Z,27.58
2023-01-19T22:26:39.669Z,26.95
2023-01-19T22:29:13.488Z,26.40
2023-01-19T22:31:47.368Z,27.23
2023-01-19T22:34:19.844Z,27.70
2023-01-19T22:36:52.547Z,28.15
2023-01-19T22:39:25.024Z,27.10
2023-01-19T22:41:57.611Z,27.50
2023-01-19T22:44:30.056Z,27.05
2023-01-19T22:47:02.862Z,27.10
2023-01-19T22:49:35.424Z,27.30
2023-01-19T22:52:08.059Z,28.98
2023-01-19T22:54:40.740Z,29.23
2023-01-19T22:57:13.289Z,30.65
2023-01-19T22:59:46.299Z,28.83
2023-01-19T23:02:20.749Z,27.08
2023-01-19T23:04:53.550Z,27.35
2023-01-19T23:07:26.082Z,26.73
2023-01-19T23:10:13.801Z,26.35
2023-01-19T23:12:46.855Z,29.08
2023-01-19T23:15:19.361Z,26.52
2023-01-19T23:17:53.834Z,28.15
2023-01-19T23:20:26.289Z,30.23
2023-01-19T23:22:58.822Z,24.95
2023-01-19T23:25:32.402Z,25.73
2023-01-19T23:28:05.180Z,24.35
2023-01-19T23:30:37.920Z,24.27
2023-01-19T23:33:10.471Z,24.95
2023-01-19T23:35:42.972Z,25.08
2023-01-19T23:38:15.535Z,24.13
2023-01-19T23:40:48.101Z,22.58
2023-01-19T23:43:20.691Z,22.17
2023-01-19T23:45:53.432Z,20.20
2023-01-19T23:48:26.281Z,22.48
2023-01-19T23:50:59.022Z,22.63
2023-01-19T23:53:31.595Z,22.50
2023-01-19T23:56:14.840Z,22.95
2023-01-19T23:58:52.277Z,21.40
